TimeEDT,TemperatureF,Dew PointF,Humidity,Sea Level PressureIn,VisibilityMPH,Wind Direction,Wind SpeedMPH,Gust SpeedMPH,PrecipitationIn,Events,Conditions,WindDirDegrees,DateUTC
12:15 AM,63.1,60.4,91,29.94,10.0,Calm,Calm,-,N/A,,Clear,0,2013-06-17 04:15:00
12:34 AM,62.6,60.1,91,29.94,10.0,Calm,Calm,-,N/A,,Clear,0,2013-06-17 04:34:00
12:55 AM,63.3,59.9,89,29.95,10.0,Calm,Calm,-,N/A,,Clear,0,2013-06-17 04:55:00
1:15 AM,62.8,59.2,88,29.95,10.0,Calm,Calm,-,N/A,,Clear,0,2013-06-17 05:15:00
1:34 AM,62.1,60.1,93,29.95,10.0,Calm,Calm,-,N/A,,Clear,0,2013-06-17 05:34:00
1:55 AM,63.9,58.5,83,29.95,10.0,Calm,Calm,-,N/A,,Clear,0,2013-06-17 05:55:00
2:14 AM,62.2,59.0,89,29.93,10.0,Calm,Calm,-,N/A,,Clear,0,2013-06-17 06:14:00
2:34 AM,62.1,59.9,93,29.93,10.0,Calm,Calm,-,N/A,,Clear,0,2013-06-17 06:34:00
2:55 AM,61.7,59.5,93,29.93,10.0,Calm,Calm,-,N/A,,Clear,0,2013-06-17 06:55:00
3:14 AM,61.2,59.7,95,29.93,10.0,Calm,Calm,-,N/A,,Clear,0,2013-06-17 07:14:00
3:35 AM,61.3,59.9,95,29.93,10.0,Calm,Calm,-,N/A,,Clear,0,2013-06-17 07:35:00
3:55 AM,61.9,59.5,92,29.93,10.0,Calm,Calm,-,N/A,,Clear,0,2013-06-17 07:55:00
4:14 AM,62.4,59.4,90,29.93,10.0,Calm,Calm,-,N/A,,Clear,0,2013-06-17 08:14:00
4:35 AM,62.8,60.4,92,29.93,10.0,Calm,Calm,-,N/A,,Clear,0,2013-06-17 08:35:00
4:54 AM,65.7,59.5,81,29.92,10.0,Calm,Calm,-,N/A,,Clear,0,2013-06-17 08:54:00
5:14 AM,65.7,60.3,83,29.93,10.0,Calm,Calm,-,N/A,,Clear,0,2013-06-17 09:14:00
5:35 AM,66.2,62.2,87,29.94,10.0,Calm,Calm,-,N/A,,Clear,0,2013-06-17 09:35:00
5:54 AM,66.4,63.3,90,29.94,10.0,Calm,Calm,-,N/A,,Clear,0,2013-06-17 09:54:00
6:15 AM,66.4,64.4,93,29.94,10.0,Calm,Calm,-,N/A,,Clear,0,2013-06-17 10:15:00
6:35 AM,66.4,64.9,95,29.94,10.0,Calm,Calm,-,N/A,,Clear,0,2013-06-17 10:35:00
6:54 AM,66.9,65.5,95,29.94,7.0,Calm,Calm,-,N/A,,Clear,0,2013-06-17 10:54:00
7:15 AM,67.8,66.4,95,29.94,7.0,Calm,Calm,-,N/A,,Clear,0,2013-06-17 11:15:00
7:35 AM,69.3,67.3,93,29.94,7.0,Calm,Calm,-,N/A,,Clear,0,2013-06-17 11:35:00
7:54 AM,70.2,67.5,91,29.95,7.0,North,3.5,-,N/A,,Clear,360,2013-06-17 11:54:00
8:15 AM,70.7,68.0,91,29.95,10.0,WNW,4.6,-,N/A,,Clear,290,2013-06-17 12:15:00
8:34 AM,71.2,68.0,89,29.96,7.0,WNW,6.9,-,N/A,,Clear,300,2013-06-17 12:34:00
8:55 AM,72.5,68.7,88,29.96,7.0,West,5.8,-,N/A,,Clear,280,2013-06-17 12:55:00
9:14 AM,73.2,68.7,86,29.96,10.0,Calm,Calm,-,N/A,,Clear,0,2013-06-17 13:14:00
9:34 AM,74.5,67.8,80,29.96,10.0,WSW,4.6,-,N/A,,Clear,250,2013-06-17 13:34:00
9:55 AM,76.6,68.2,75,29.96,10.0,West,3.5,-,N/A,,Clear,270,2013-06-17 13:55:00
10:14 AM,77.5,67.5,71,29.96,10.0,WNW,3.5,-,N/A,,Clear,290,2013-06-17 14:14:00
10:34 AM,78.8,65.5,64,29.95,10.0,West,4.6,-,N/A,,Clear,280,2013-06-17 14:34:00
10:55 AM,79.9,61.3,53,29.95,10.0,WNW,8.1,-,N/A,,Unknown,300,2013-06-17 14:55:00
11:14 AM,81.0,60.1,49,29.96,10.0,WNW,8.1,-,N/A,,Unknown,300,2013-06-17 15:14:00
11:34 AM,81.1,57.6,44,29.96,10.0,WSW,8.1,-,N/A,,Clear,250,2013-06-17 15:34:00
11:55 AM,82.2,56.7,41,29.96,10.0,West,9.2,16.1,N/A,,Clear,270,2013-06-17 15:55:00
12:14 PM,82.6,55.6,39,29.96,10.0,West,11.5,16.1,N/A,,Clear,280,2013-06-17 16:14:00
12:35 PM,82.8,53.4,36,29.95,10.0,WNW,6.9,-,N/A,,Clear,290,2013-06-17 16:35:00
12:54 PM,-9999,-9999,N/A,29.95,10.0,North,-9999.0,-,N/A,,Clear,0,2013-06-17 16:54:00
1:15 PM,-9999,-9999,N/A,29.94,10.0,North,-9999.0,-,N/A,,Clear,0,2013-06-17 17:15:00
1:34 PM,83.8,52.7,34,29.95,10.0,West,6.9,-,N/A,,Clear,280,2013-06-17 17:34:00
1:54 PM,83.8,52.0,33,29.94,10.0,WNW,6.9,-,N/A,,Clear,290,2013-06-17 17:54:00
2:15 PM,84.7,50.5,31,29.93,10.0,West,4.6,-,N/A,,Clear,280,2013-06-17 18:15:00
2:34 PM,85.3,-9999,N/A,29.93,-9999.0,WSW,9.2,-,N/A,,Unknown,250,2013-06-17 18:34:00
2:55 PM,85.5,49.6,29,29.94,10.0,West,9.2,-,N/A,,Clear,260,2013-06-17 18:55:00
3:15 PM,84.4,49.8,30,29.93,10.0,WSW,6.9,-,N/A,,Clear,250,2013-06-17 19:15:00
3:34 PM,84.9,51.1,31,29.93,10.0,West,8.1,-,N/A,,Clear,260,2013-06-17 19:34:00
3:55 PM,85.1,52.0,32,29.92,10.0,West,9.2,-,N/A,,Clear,270,2013-06-17 19:55:00
4:15 PM,84.6,52.5,33,29.92,10.0,WSW,6.9,16.1,N/A,,Scattered Clouds,240,2013-06-17 20:15:00
4:34 PM,85.3,53.2,33,29.92,10.0,West,10.4,-,N/A,,Clear,270,2013-06-17 20:34:00
4:55 PM,84.7,52.3,33,29.91,10.0,WSW,9.2,-,N/A,,Clear,240,2013-06-17 20:55:00
5:14 PM,84.9,52.2,32,29.90,10.0,West,11.5,-,N/A,,Scattered Clouds,260,2013-06-17 21:14:00
5:34 PM,84.7,51.6,32,29.90,10.0,West,8.1,-,N/A,,Scattered Clouds,260,2013-06-17 21:34:00
5:55 PM,85.1,51.4,31,29.90,10.0,WSW,9.2,-,N/A,,Scattered Clouds,250,2013-06-17 21:55:00
6:14 PM,84.2,51.4,32,29.89,10.0,WSW,9.2,-,N/A,,Clear,240,2013-06-17 22:14:00
6:34 PM,84.0,52.9,34,29.89,10.0,WSW,5.8,-,N/A,,Clear,250,2013-06-17 22:34:00
6:55 PM,83.1,53.6,36,29.89,10.0,WSW,5.8,-,N/A,,Clear,250,2013-06-17 22:55:00
7:14 PM,82.8,53.1,36,29.89,10.0,WSW,4.6,-,N/A,,Scattered Clouds,250,2013-06-17 23:14:00
7:35 PM,82.0,54.7,39,29.90,10.0,WSW,4.6,-,N/A,,Clear,250,2013-06-17 23:35:00
7:55 PM,81.9,56.8,42,29.90,10.0,WSW,3.5,-,N/A,,Clear,250,2013-06-17 23:55:00
8:14 PM,81.1,57.9,45,29.90,10.0,WSW,4.6,-,N/A,,Clear,240,2013-06-18 00:14:00
8:34 PM,80.1,57.7,46,29.90,10.0,WSW,3.5,-,N/A,,Clear,250,2013-06-18 00:34:00
8:55 PM,78.8,59.4,51,29.90,10.0,Calm,Calm,-,N/A,,Clear,0,2013-06-18 00:55:00
9:14 PM,77.7,59.0,52,29.90,10.0,Calm,Calm,-,N/A,,Clear,0,2013-06-18 01:14:00
9:35 PM,76.5,59.4,55,29.90,10.0,Calm,Calm,-,N/A,,Clear,0,2013-06-18 01:35:00
9:54 PM,75.0,60.3,60,29.90,10.0,Calm,Calm,-,N/A,,Clear,0,2013-06-18 01:54:00
10:14 PM,73.9,61.3,65,29.90,10.0,Calm,Calm,-,N/A,,Clear,0,2013-06-18 02:14:00
10:34 PM,73.4,60.1,63,29.92,10.0,Calm,Calm,-,N/A,,Clear,0,2013-06-18 02:34:00
10:54 PM,68.9,62.8,81,29.96,10.0,WNW,18.4,38.0,N/A,Rain,Rain,300,2013-06-18 02:54:00
11:14 PM,66.6,61.5,84,29.96,7.0,North,5.8,20.7,N/A,Rain,Heavy Rain,360,2013-06-18 03:14:00
11:34 PM,65.8,62.2,88,29.92,10.0,ENE,5.8,-,N/A,,Scattered Clouds,70,2013-06-18 03:34:00
11:55 PM,64.6,62.8,94,29.92,10.0,Calm,Calm,-,N/A,,Scattered Clouds,0,2013-06-18 03:55:00